Valmy, Wisconsin
Current Conditions -  °F | °C
As of 8:35 PM on Thursday 20 Nov 2014 (Local Time) from KSUE Reporting Station
Clear Clear  
Wind Chill: -3°   Ceiling: Unl
Heat Index: 12°   Visibility: 10mi
Dew Point:   Wind: 13mph
Humidity: 57%   Direction: 310°NW
Pressure: 30.14"   Gusts: 21mph
Location:  44.7888°N, 87.4464°W
Report Text: KSUE 210235Z AUTO 31011G18KT 10SM CLR M11/M18 A3014 RMK AO1
Loading
Personal Weather Stations






























Interactive Weather Map New forecast layout! Learn more

10-Day Weather Forecast

Advertisements
Track Severe Weather on mobile